Time;durP1;ratioP1;P1;durP2;ratioP2;P2;SDS_P1;SDS_P2;PMS_P1;PMS_P2;Temp;Humidity;BMP_temperature;BMP_pressure;BME280_temperature;BME280_humidity;BME280_pressure;Samples;Min_cycle;Max_cycle;Signal;HPM_P1;HPM_P2
2022/03/01 00:00:39;;;;;;;5.13;4.13;;;8.20;1.00;;;;;;5084554;28;20453;-80
2022/03/01 00:03:08;;;;;;;5.50;4.30;;;8.10;1.00;;;;;;5095863;28;20451;-81
2022/03/01 00:05:36;;;;;;;9.20;4.13;;;8.50;1.00;;;;;;5075092;28;20475;-80
2022/03/01 00:08:05;;;;;;;7.10;4.63;;;8.10;1.00;;;;;;5088933;28;20439;-81
2022/03/01 00:10:33;;;;;;;5.83;3.80;;;8.00;1.00;;;;;;5087180;28;20450;-80
2022/03/01 00:13:01;;;;;;;6.63;4.80;;;8.10;1.00;;;;;;5095952;28;20466;-80
2022/03/01 00:15:32;;;;;;;9.87;4.60;;;7.80;1.00;;;;;;5083067;28;20470;-81
2022/03/01 00:18:00;;;;;;;8.73;4.30;;;7.80;1.00;;;;;;5085983;28;20455;-81
2022/03/01 00:20:28;;;;;;;6.63;4.03;;;7.80;1.00;;;;;;5085756;28;20527;-81
2022/03/01 00:22:57;;;;;;;8.97;4.93;;;7.90;1.00;;;;;;5087007;28;20442;-81
2022/03/01 00:25:25;;;;;;;7.10;4.17;;;7.70;1.00;;;;;;5087505;28;20464;-80
2022/03/01 00:27:53;;;;;;;8.83;4.90;;;7.60;1.00;;;;;;5105024;27;20444;-80
2022/03/01 00:30:21;;;;;;;7.97;3.90;;;7.60;1.00;;;;;;5083641;28;20508;-80
2022/03/01 00:32:51;;;;;;;6.83;4.13;;;7.60;1.00;;;;;;5084487;28;20987;-80
2022/03/01 00:35:19;;;;;;;5.03;4.03;;;7.50;1.00;;;;;;5087425;28;20467;-81
2022/03/01 00:37:47;;;;;;;6.20;4.37;;;7.40;1.00;;;;;;5082091;28;20454;-80
2022/03/01 00:40:15;;;;;;;7.07;4.17;;;7.40;1.00;;;;;;5081887;28;20783;-79
2022/03/01 00:42:44;;;;;;;6.27;4.80;;;7.40;1.00;;;;;;5081621;28;20467;-80
2022/03/01 00:45:12;;;;;;;7.33;4.57;;;7.60;1.00;;;;;;5085776;28;20529;-81
2022/03/01 00:47:43;;;;;;;6.40;4.10;;;7.30;1.00;;;;;;5082246;28;20450;-79
2022/03/01 00:50:13;;;;;;;7.90;4.40;;;7.30;1.00;;;;;;5083067;28;21273;-79
2022/03/01 00:52:41;;;;;;;7.27;5.13;;;7.10;1.00;;;;;;5087102;28;20997;-79
2022/03/01 00:55:10;;;;;;;3.73;3.10;;;7.10;1.00;;;;;;5085305;28;20545;-79
2022/03/01 00:57:38;;;;;;;6.17;4.03;;;7.20;1.00;;;;;;5082731;28;20451;-80
2022/03/01 01:00:12;;;;;;;5.83;4.00;;;7.50;1.00;;;;;;5083153;28;20466;-80
2022/03/01 01:02:40;;;;;;;7.63;4.10;;;7.40;1.00;;;;;;5091972;28;20442;-80
2022/03/01 01:05:10;;;;;;;6.00;3.53;;;7.30;1.00;;;;;;5088463;28;21006;-80
2022/03/01 01:07:40;;;;;;;8.30;4.40;;;7.40;1.00;;;;;;5085877;28;20454;-79
2022/03/01 01:10:11;;;;;;;7.97;5.30;;;7.30;1.00;;;;;;5085991;28;20462;-80
2022/03/01 01:12:41;;;;;;;7.30;4.33;;;7.30;1.00;;;;;;5084640;28;20475;-80
2022/03/01 01:15:12;;;;;;;11.30;4.53;;;7.40;1.00;;;;;;5085431;28;20494;-79
2022/03/01 01:17:40;;;;;;;9.07;5.70;;;7.20;1.00;;;;;;5080598;28;20945;-81
2022/03/01 01:20:10;;;;;;;7.63;5.53;;;7.20;1.00;;;;;;5085473;28;20223;-80
2022/03/01 01:22:41;;;;;;;9.53;5.00;;;7.20;1.00;;;;;;5084105;28;20969;-79
2022/03/01 01:25:12;;;;;;;8.83;4.67;;;7.60;1.00;;;;;;5083765;28;20474;-80
2022/03/01 01:27:42;;;;;;;8.43;5.40;;;7.40;1.00;;;;;;5087774;28;20950;-81
2022/03/01 01:30:12;;;;;;;7.20;3.90;;;7.40;1.00;;;;;;5083823;28;21107;-81
2022/03/01 01:32:40;;;;;;;9.10;4.20;;;7.40;1.00;;;;;;5086633;28;20470;-80
2022/03/01 01:35:11;;;;;;;9.50;4.87;;;7.40;1.00;;;;;;5086158;28;20481;-81
2022/03/01 01:37:41;;;;;;;6.17;4.07;;;7.30;1.00;;;;;;5083447;28;20535;-81
2022/03/01 01:40:11;;;;;;;7.90;4.63;;;7.30;1.00;;;;;;5087306;28;20994;-81
2022/03/01 01:42:40;;;;;;;6.53;3.80;;;7.30;1.00;;;;;;5085066;28;20446;-81
2022/03/01 01:45:09;;;;;;;5.30;3.93;;;7.50;1.00;;;;;;5083884;28;20478;-82
2022/03/01 01:47:46;;;;;;;9.37;5.23;;;7.20;1.00;;;;;;5080972;28;20505;-83
2022/03/01 01:50:14;;;;;;;8.00;4.07;;;6.70;1.00;;;;;;5084811;28;20512;-82
2022/03/01 01:52:45;;;;;;;6.00;3.77;;;7.20;1.00;;;;;;5087246;28;20478;-82
2022/03/01 01:55:13;;;;;;;4.80;4.03;;;7.20;1.00;;;;;;5090943;28;20474;-81
2022/03/01 01:57:41;;;;;;;6.93;4.50;;;7.20;1.00;;;;;;5089236;28;20457;-81
2022/03/01 02:00:11;;;;;;;8.60;4.07;;;7.10;1.00;;;;;;5087292;28;20962;-81
2022/03/01 02:02:41;;;;;;;8.70;4.63;;;7.10;1.00;;;;;;5088082;28;20446;-81
2022/03/01 02:05:10;;;;;;;7.13;4.13;;;7.10;1.00;;;;;;5091738;28;20518;-81
2022/03/01 02:07:47;;;;;;;6.27;4.73;;;7.10;1.00;;;;;;5089900;28;20443;-81
2022/03/01 02:10:16;;;;;;;9.37;4.53;;;7.10;1.00;;;;;;5084550;28;20456;-80
2022/03/01 02:12:45;;;;;;;6.20;4.50;;;7.10;1.00;;;;;;5092265;28;20484;-80
2022/03/01 02:15:14;;;;;;;7.47;3.80;;;7.00;1.00;;;;;;5087462;28;20482;-79
2022/03/01 02:17:43;;;;;;;9.07;5.33;;;6.90;1.00;;;;;;5088705;28;20453;-81
2022/03/01 02:20:16;;;;;;;10.10;4.93;;;6.90;1.00;;;;;;5084409;28;20460;-80
2022/03/01 02:22:44;;;;;;;8.20;4.80;;;6.80;1.00;;;;;;5082296;28;20466;-81
2022/03/01 02:25:14;;;;;;;11.47;4.70;;;6.80;1.00;;;;;;5088272;28;20576;-80
2022/03/01 02:27:42;;;;;;;10.43;5.40;;;7.00;1.00;;;;;;5083390;28;20504;-79
2022/03/01 02:30:11;;;;;;;5.70;4.10;;;6.70;1.00;;;;;;5084013;28;20553;-80
2022/03/01 02:32:41;;;;;;;5.17;3.77;;;6.70;1.00;;;;;;5092708;28;20557;-80
2022/03/01 02:35:11;;;;;;;4.53;4.00;;;6.40;1.00;;;;;;5086725;28;20561;-80
2022/03/01 02:37:42;;;;;;;7.90;5.33;;;6.50;1.00;;;;;;5089480;28;20457;-80
2022/03/01 02:40:10;;;;;;;6.70;3.80;;;6.20;1.00;;;;;;5088202;28;20453;-80
2022/03/01 02:42:40;;;;;;;8.80;5.03;;;6.30;1.00;;;;;;5090290;28;20499;-80
2022/03/01 02:45:11;;;;;;;9.77;5.57;;;6.30;1.00;;;;;;5080658;28;20482;-80
2022/03/01 02:47:39;;;;;;;9.00;4.57;;;6.20;1.00;;;;;;5092474;28;20463;-81
2022/03/01 02:50:09;;;;;;;6.97;4.90;;;6.20;1.00;;;;;;5086509;28;20503;-80
2022/03/01 02:52:38;;;;;;;9.30;5.67;;;6.30;1.00;;;;;;5082409;28;20465;-80
2022/03/01 02:55:10;;;;;;;9.20;4.40;;;6.40;1.00;;;;;;5076075;28;20967;-79
2022/03/01 02:57:39;;;;;;;10.80;5.50;;;6.20;1.00;;;;;;5088160;28;20461;-81
2022/03/01 03:00:10;;;;;;;8.13;4.10;;;6.20;1.00;;;;;;5085135;28;21020;-79
2022/03/01 03:02:41;;;;;;;12.18;5.20;;;6.20;1.00;;;;;;5085846;28;20867;-79
2022/03/01 03:05:10;;;;;;;8.50;4.80;;;6.10;1.00;;;;;;5083870;28;20330;-80
2022/03/01 03:07:38;;;;;;;10.00;4.80;;;6.00;1.00;;;;;;5088042;28;20804;-79
2022/03/01 03:10:08;;;;;;;9.55;5.05;;;5.80;1.00;;;;;;5088085;28;20442;-80
2022/03/01 03:12:36;;;;;;;9.27;5.97;;;5.80;1.00;;;;;;5078685;28;20716;-79
2022/03/01 03:15:06;;;;;;;8.65;4.63;;;5.70;1.00;;;;;;5081631;28;20464;-79
2022/03/01 03:17:34;;;;;;;9.20;4.90;;;5.60;1.00;;;;;;5086656;28;20192;-78
2022/03/01 03:20:03;;;;;;;7.50;5.20;;;6.10;1.00;;;;;;5087512;28;20208;-79
2022/03/01 03:22:31;;;;;;;13.40;5.50;;;5.80;1.00;;;;;;5080818;28;21120;-80
2022/03/01 03:24:59;;;;;;;6.60;5.07;;;5.70;1.00;;;;;;5087621;28;20824;-79
2022/03/01 03:27:29;;;;;;;7.50;3.97;;;5.80;1.00;;;;;;5081894;28;20468;-81
2022/03/01 03:29:57;;;;;;;9.80;4.03;;;5.50;1.00;;;;;;5087757;28;20449;-79
2022/03/01 03:32:25;;;;;;;7.17;4.53;;;6.00;1.00;;;;;;5089887;28;20453;-80
2022/03/01 03:34:53;;;;;;;7.50;5.13;;;6.10;1.00;;;;;;5083974;28;20483;-80
2022/03/01 03:37:22;;;;;;;8.63;4.30;;;6.00;1.00;;;;;;5086080;28;20489;-80
2022/03/01 03:39:51;;;;;;;7.20;4.70;;;5.70;1.00;;;;;;5089150;28;20619;-80
2022/03/01 03:42:19;;;;;;;9.00;5.03;;;5.80;1.00;;;;;;5089445;28;20220;-79
2022/03/01 03:44:49;;;;;;;11.35;4.60;;;5.70;1.00;;;;;;5094228;28;20212;-80
2022/03/01 03:47:17;;;;;;;8.13;4.73;;;5.90;1.00;;;;;;5088749;28;20543;-79
2022/03/01 03:49:45;;;;;;;6.10;3.95;;;5.70;1.00;;;;;;5089342;28;20471;-79
2022/03/01 03:52:13;;;;;;;10.57;6.72;;;5.70;1.00;;;;;;5089765;28;20204;-79
2022/03/01 03:54:42;;;;;;;8.60;5.28;;;5.70;1.00;;;;;;5091156;28;20252;-79
2022/03/01 03:57:10;;;;;;;7.80;4.67;;;5.80;1.00;;;;;;5084837;28;20647;-79
2022/03/01 03:59:39;;;;;;;9.67;4.30;;;5.80;1.00;;;;;;5085419;28;20971;-80
2022/03/01 04:02:09;;;;;;;7.60;5.30;;;5.70;1.00;;;;;;5092190;28;21265;-80
2022/03/01 04:04:38;;;;;;;8.73;4.88;;;5.60;1.00;;;;;;5081939;28;20212;-81
2022/03/01 04:07:06;;;;;;;6.40;4.47;;;5.60;1.00;;;;;;5082716;28;20210;-80
2022/03/01 04:09:37;;;;;;;10.40;4.50;;;5.50;1.00;;;;;;5082030;28;20216;-80
2022/03/01 04:12:06;;;;;;;10.57;4.57;;;5.80;1.00;;;;;;5086736;28;20202;-80
2022/03/01 04:14:34;;;;;;;9.05;5.60;;;5.40;1.00;;;;;;5085862;28;20470;-80
2022/03/01 04:17:03;;;;;;;8.68;4.15;;;5.50;1.00;;;;;;5093385;28;20198;-79
2022/03/01 04:19:33;;;;;;;5.73;4.20;;;5.60;1.00;;;;;;5084535;28;20208;-79
2022/03/01 04:22:04;;;;;;;8.40;4.60;;;5.70;1.00;;;;;;5086349;28;21019;-80
2022/03/01 04:24:32;;;;;;;6.73;4.77;;;5.70;1.00;;;;;;5089119;28;20471;-80
2022/03/01 04:27:02;;;;;;;6.93;5.30;;;5.70;1.00;;;;;;5088297;28;20974;-81
2022/03/01 04:29:31;;;;;;;10.37;6.60;;;5.80;1.00;;;;;;5085778;28;20450;-79
2022/03/01 04:31:59;;;;;;;9.35;5.15;;;5.70;1.00;;;;;;5093060;28;20514;-81
2022/03/01 04:34:27;;;;;;;8.88;5.07;;;5.70;1.00;;;;;;5090148;28;20224;-80
2022/03/01 04:36:57;;;;;;;6.57;4.27;;;5.90;1.00;;;;;;5086132;28;20200;-78
2022/03/01 04:39:25;;;;;;;6.57;4.60;;;5.70;1.00;;;;;;5088681;28;20502;-78
2022/03/01 04:41:53;;;;;;;10.00;5.85;;;5.70;1.00;;;;;;5085617;28;20980;-80
2022/03/01 04:44:22;;;;;;;8.60;5.03;;;5.80;1.00;;;;;;5085577;28;20214;-81
2022/03/01 04:46:50;;;;;;;11.67;5.40;;;5.80;1.00;;;;;;5093381;28;20548;-80
2022/03/01 04:49:18;;;;;;;7.70;4.33;;;5.90;1.00;;;;;;5087285;28;20799;-81
2022/03/01 04:51:47;;;;;;;9.77;5.40;;;6.10;1.00;;;;;;5088428;28;20445;-80
2022/03/01 04:54:16;;;;;;;10.30;5.67;;;5.90;1.00;;;;;;5088452;28;20480;-80
2022/03/01 04:56:46;;;;;;;6.33;4.53;;;5.90;1.00;;;;;;5085943;28;20519;-79
2022/03/01 04:59:14;;;;;;;8.00;4.50;;;5.90;1.00;;;;;;5084258;28;20899;-80
2022/03/01 05:01:42;;;;;;;6.93;4.73;;;5.80;1.00;;;;;;5084306;28;20583;-79
2022/03/01 05:04:11;;;;;;;7.73;5.10;;;5.70;1.00;;;;;;5089722;28;20972;-79
2022/03/01 05:06:40;;;;;;;10.63;5.30;;;5.70;1.00;;;;;;5089612;28;20442;-79
2022/03/01 05:09:08;;;;;;;9.90;5.50;;;5.70;1.00;;;;;;5087392;28;20196;-80
2022/03/01 05:11:37;;;;;;;7.50;6.20;;;5.80;1.00;;;;;;5091362;28;20442;-79
2022/03/01 05:14:06;;;;;;;6.85;5.57;;;5.90;1.00;;;;;;5076986;28;20486;-79
2022/03/01 05:16:34;;;;;;;6.70;4.00;;;5.70;1.00;;;;;;5092397;28;20564;-79
2022/03/01 05:19:03;;;;;;;7.55;5.28;;;5.70;1.00;;;;;;5086018;28;20498;-81
2022/03/01 05:21:31;;;;;;;9.63;4.95;;;5.90;1.00;;;;;;5087717;28;20196;-80
2022/03/01 05:23:59;;;;;;;6.87;4.77;;;5.90;1.00;;;;;;5086144;28;20220;-80
2022/03/01 05:26:27;;;;;;;7.50;5.57;;;5.50;1.00;;;;;;5083403;28;20466;-80
2022/03/01 05:28:57;;;;;;;9.30;6.43;;;5.80;1.00;;;;;;5094155;28;20647;-79
2022/03/01 05:31:27;;;;;;;8.30;5.80;;;5.50;1.00;;;;;;5083051;28;20195;-80
2022/03/01 05:33:55;;;;;;;10.90;6.00;;;5.70;1.00;;;;;;5081980;28;20197;-78
2022/03/01 05:36:23;;;;;;;11.43;5.30;;;5.30;1.00;;;;;;5089256;28;20465;-81
2022/03/01 05:38:52;;;;;;;6.18;5.00;;;5.30;1.00;;;;;;5091370;28;20646;-81
2022/03/01 05:41:20;;;;;;;9.25;5.60;;;5.20;1.00;;;;;;5083529;28;20196;-78
2022/03/01 05:43:48;;;;;;;7.38;4.93;;;5.20;1.00;;;;;;5082503;28;20198;-78
2022/03/01 05:46:18;;;;;;;8.63;5.22;;;5.20;1.00;;;;;;5080001;28;20227;-77
2022/03/01 05:48:47;;;;;;;7.43;5.07;;;5.10;1.00;;;;;;5084068;28;20238;-79
2022/03/01 05:51:15;;;;;;;7.50;5.67;;;5.10;1.00;;;;;;5082352;28;20205;-77
2022/03/01 05:53:44;;;;;;;9.15;6.10;;;5.10;1.00;;;;;;5079622;28;20446;-80
2022/03/01 05:56:12;;;;;;;8.67;5.67;;;5.00;1.00;;;;;;5079788;28;20257;-80
2022/03/01 05:58:40;;;;;;;10.48;4.68;;;5.00;1.00;;;;;;5077959;28;20449;-79
2022/03/01 06:01:08;;;;;;;6.28;4.60;;;5.00;1.00;;;;;;5079093;28;20194;-80
2022/03/01 06:03:38;;;;;;;11.10;5.90;;;4.80;1.00;;;;;;5084883;28;20559;-78
2022/03/01 06:06:07;;;;;;;11.85;5.50;;;4.90;1.00;;;;;;5085773;28;20276;-80
2022/03/01 06:08:35;;;;;;;8.95;6.53;;;4.90;1.00;;;;;;5093340;28;20441;-79
2022/03/01 06:11:05;;;;;;;7.72;5.25;;;4.80;1.00;;;;;;5084349;28;20294;-80
2022/03/01 06:13:33;;;;;;;7.88;5.55;;;4.90;1.00;;;;;;5081782;28;20620;-80
2022/03/01 06:16:01;;;;;;;12.05;5.72;;;4.90;1.00;;;;;;5081687;28;20232;-79
2022/03/01 06:18:30;;;;;;;6.97;5.90;;;4.90;1.00;;;;;;5084825;28;20193;-79
2022/03/01 06:21:01;;;;;;;9.25;6.25;;;4.80;1.00;;;;;;5083399;28;20189;-80
2022/03/01 06:23:31;;;;;;;6.45;4.40;;;4.70;1.00;;;;;;5083453;28;20203;-79
2022/03/01 06:25:59;;;;;;;9.75;6.57;;;4.60;1.00;;;;;;5081126;28;20990;-82
2022/03/01 06:28:28;;;;;;;13.77;8.40;;;4.50;1.00;;;;;;5080408;28;20926;-80
2022/03/01 06:30:56;;;;;;;7.53;4.53;;;4.50;1.00;;;;;;5084641;28;20195;-77
2022/03/01 06:33:24;;;;;;;7.85;5.20;;;4.80;1.00;;;;;;5084953;28;20200;-80
2022/03/01 06:35:53;;;;;;;7.10;5.03;;;4.60;1.00;;;;;;5084609;28;20211;-79
2022/03/01 06:38:22;;;;;;;8.35;4.88;;;4.70;1.00;;;;;;5080016;28;20200;-80
2022/03/01 06:40:51;;;;;;;7.43;5.28;;;4.80;1.00;;;;;;5087136;28;20667;-81
2022/03/01 06:43:20;;;;;;;14.13;6.18;;;4.90;1.00;;;;;;5085036;28;20241;-79
2022/03/01 06:45:48;;;;;;;7.93;6.57;;;4.80;1.00;;;;;;5083036;28;20735;-80
2022/03/01 06:48:16;;;;;;;12.23;5.40;;;4.70;1.00;;;;;;5086438;28;20215;-79
2022/03/01 06:50:45;;;;;;;9.13;6.50;;;4.60;1.00;;;;;;5080171;28;20459;-81
2022/03/01 06:53:15;;;;;;;9.60;5.05;;;4.60;1.00;;;;;;5087385;28;20237;-79
2022/03/01 06:55:45;;;;;;;10.55;5.70;;;4.60;1.00;;;;;;5087969;28;20221;-79
2022/03/01 06:58:16;;;;;;;9.98;5.65;;;4.60;1.00;;;;;;5083505;28;20224;-78
2022/03/01 07:00:45;;;;;;;9.43;4.40;;;5.00;1.00;;;;;;5082824;28;20204;-80
2022/03/01 07:03:13;;;;;;;7.40;4.88;;;4.70;1.00;;;;;;5086018;28;20659;-79
2022/03/01 07:05:42;;;;;;;7.07;4.57;;;4.80;1.00;;;;;;5087608;28;20223;-79
2022/03/01 07:08:10;;;;;;;10.95;5.35;;;5.10;1.00;;;;;;5095541;28;20195;-80
2022/03/01 07:10:40;;;;;;;5.28;4.70;;;4.90;1.00;;;;;;5088245;28;20196;-80
2022/03/01 07:13:10;;;;;;;5.85;3.50;;;4.90;1.00;;;;;;5086051;28;20200;-81
2022/03/01 07:15:38;;;;;;;9.93;5.22;;;5.20;1.00;;;;;;5087350;28;20222;-79
2022/03/01 07:18:06;;;;;;;8.68;4.70;;;5.00;1.00;;;;;;5080714;28;20965;-77
2022/03/01 07:20:36;;;;;;;5.37;4.70;;;5.00;1.00;;;;;;5083289;28;20212;-80
2022/03/01 07:23:05;;;;;;;7.18;4.50;;;5.10;1.00;;;;;;5083049;28;20460;-80
2022/03/01 07:25:33;;;;;;;6.95;4.82;;;5.10;1.00;;;;;;5083781;28;20247;-80
2022/03/01 07:28:02;;;;;;;5.73;4.47;;;5.20;1.00;;;;;;5085729;28;20196;-80
2022/03/01 07:30:32;;;;;;;10.20;5.20;;;5.20;1.00;;;;;;5079381;28;20458;-80
2022/03/01 07:33:01;;;;;;;10.45;5.18;;;5.30;1.00;;;;;;5103714;27;20663;-79
2022/03/01 07:35:30;;;;;;;10.45;4.40;;;5.40;1.00;;;;;;5081484;28;20759;-81
2022/03/01 07:37:59;;;;;;;10.10;5.63;;;5.50;1.00;;;;;;5085632;28;20197;-82
2022/03/01 07:40:28;;;;;;;9.20;5.90;;;5.60;1.00;;;;;;5083487;28;20437;-80
2022/03/01 07:42:56;;;;;;;7.00;4.93;;;5.50;1.00;;;;;;5084812;28;20478;-80
2022/03/01 07:45:25;;;;;;;9.67;6.43;;;5.50;1.00;;;;;;5087598;28;20473;-80
2022/03/01 07:47:56;;;;;;;9.77;5.10;;;5.60;1.00;;;;;;5087401;28;20450;-80
2022/03/01 07:50:24;;;;;;;10.73;5.32;;;5.60;1.00;;;;;;5080893;28;20941;-79
2022/03/01 07:52:53;;;;;;;7.43;4.10;;;5.50;1.00;;;;;;5081602;28;20206;-80
2022/03/01 07:55:22;;;;;;;8.60;5.22;;;5.70;1.00;;;;;;5086876;28;20473;-81
2022/03/01 07:57:52;;;;;;;9.77;5.50;;;5.50;1.00;;;;;;5085519;28;20733;-82
2022/03/01 08:00:21;;;;;;;7.83;4.90;;;5.70;1.00;;;;;;5083113;28;20228;-79
2022/03/01 08:02:53;;;;;;;8.37;4.90;;;5.80;1.00;;;;;;5085469;28;20537;-80
2022/03/01 08:05:22;;;;;;;8.40;5.00;;;6.10;1.00;;;;;;5085650;28;20477;-81
2022/03/01 08:07:56;;;;;;;10.93;5.33;;;6.60;1.00;;;;;;5078421;28;20497;-80
2022/03/01 08:10:25;;;;;;;8.73;5.10;;;6.60;1.00;;;;;;5088391;28;20456;-80
2022/03/01 08:12:54;;;;;;;8.17;4.30;;;6.90;1.00;;;;;;5086241;28;20452;-80
2022/03/01 08:15:25;;;;;;;7.03;4.77;;;7.20;1.00;;;;;;5091360;28;20465;-80
2022/03/01 08:17:56;;;;;;;7.27;4.20;;;7.30;1.00;;;;;;5096544;28;20464;-81
2022/03/01 08:20:24;;;;;;;8.83;4.90;;;7.60;1.00;;;;;;5087763;28;20942;-80
2022/03/01 08:22:53;;;;;;;8.23;5.27;;;7.40;1.00;;;;;;5090931;28;20459;-80
2022/03/01 08:25:21;;;;;;;7.07;4.20;;;7.60;1.00;;;;;;5085282;28;20471;-80
2022/03/01 08:27:49;;;;;;;6.37;4.30;;;7.70;1.00;;;;;;5083144;28;20459;-81
2022/03/01 08:30:17;;;;;;;7.30;5.03;;;7.80;1.00;;;;;;5086251;28;20451;-79
2022/03/01 08:32:46;;;;;;;5.83;4.80;;;8.00;1.00;;;;;;5087687;28;20953;-80
2022/03/01 08:35:15;;;;;;;6.87;4.43;;;8.10;1.00;;;;;;5084971;28;21049;-81
2022/03/01 08:37:44;;;;;;;10.60;6.03;;;8.20;1.00;;;;;;5088656;28;20494;-80
2022/03/01 08:40:13;;;;;;;7.80;5.10;;;8.40;1.00;;;;;;5085203;28;20443;-80
2022/03/01 08:42:42;;;;;;;9.07;5.50;;;8.40;1.00;;;;;;5086724;28;20460;-80
2022/03/01 08:45:11;;;;;;;7.10;5.73;;;8.50;1.00;;;;;;5088118;28;20491;-81
2022/03/01 08:47:40;;;;;;;11.50;5.03;;;8.50;1.00;;;;;;5083140;28;20443;-81
2022/03/01 08:50:10;;;;;;;8.30;5.63;;;8.70;1.00;;;;;;5084917;28;20451;-80
2022/03/01 08:53:00;;;;;;;8.37;5.43;;;8.80;1.00;;;;;;5081361;28;20503;-82
2022/03/01 08:55:29;;;;;;;9.17;5.07;;;9.00;1.00;;;;;;5090831;28;20526;-79
2022/03/01 08:57:57;;;;;;;9.70;5.27;;;9.10;1.00;;;;;;5089626;28;20576;-81
2022/03/01 09:00:26;;;;;;;6.77;4.57;;;9.20;1.00;;;;;;5085773;28;20987;-80
2022/03/01 09:02:55;;;;;;;7.93;5.33;;;9.30;1.00;;;;;;5081463;28;20457;-81
2022/03/01 09:05:24;;;;;;;6.30;4.77;;;9.40;1.00;;;;;;5089309;28;20465;-80
2022/03/01 09:07:52;;;;;;;7.83;4.47;;;9.80;1.00;;;;;;5088702;28;20535;-80
2022/03/01 09:10:23;;;;;;;8.47;4.77;;;10.00;1.00;;;;;;5090835;28;20445;-80
2022/03/01 09:12:52;;;;;;;9.87;5.37;;;10.20;1.00;;;;;;5093146;28;20448;-79
2022/03/01 09:15:22;;;;;;;6.30;4.53;;;10.20;1.00;;;;;;5088798;28;20552;-80
2022/03/01 09:17:51;;;;;;;6.00;5.03;;;10.20;1.00;;;;;;5084735;28;20848;-81
2022/03/01 09:20:20;;;;;;;6.47;4.87;;;10.10;1.00;;;;;;5085230;28;20470;-80
2022/03/01 09:22:48;;;;;;;6.40;4.93;;;10.10;1.00;;;;;;5087695;28;21043;-80
2022/03/01 09:25:16;;;;;;;7.43;4.20;;;10.20;1.00;;;;;;5093406;28;20528;-81
2022/03/01 09:27:46;;;;;;;5.97;5.37;;;10.40;1.00;;;;;;5089601;28;20934;-80
2022/03/01 09:30:14;;;;;;;5.93;5.33;;;10.50;1.00;;;;;;5082104;28;20466;-79
2022/03/01 09:32:43;;;;;;;8.77;5.07;;;10.60;1.00;;;;;;5087166;28;20462;-78
2022/03/01 09:35:11;;;;;;;7.80;5.60;;;10.60;1.00;;;;;;5087609;28;20499;-79
2022/03/01 09:37:41;;;;;;;9.07;4.60;;;10.60;1.00;;;;;;5087581;28;20775;-81
2022/03/01 09:40:12;;;;;;;6.50;5.17;;;10.80;1.00;;;;;;5081881;28;20496;-79
2022/03/01 09:42:41;;;;;;;5.13;4.60;;;11.00;1.00;;;;;;5083704;28;20467;-80
2022/03/01 09:45:13;;;;;;;6.37;5.67;;;11.30;1.00;;;;;;5083059;28;20923;-79
2022/03/01 09:47:41;;;;;;;8.83;5.57;;;11.60;1.00;;;;;;5084986;28;20440;-78
2022/03/01 09:50:11;;;;;;;5.03;4.57;;;11.90;1.00;;;;;;5081949;28;20516;-78
2022/03/01 09:52:40;;;;;;;7.23;4.80;;;11.80;1.00;;;;;;5083485;28;20457;-78
2022/03/01 09:55:09;;;;;;;8.83;5.53;;;11.90;1.00;;;;;;5085848;28;20481;-81
2022/03/01 09:57:38;;;;;;;8.88;5.75;;;12.00;1.00;;;;;;5081447;28;20444;-78
2022/03/01 10:00:08;;;;;;;6.43;5.50;;;12.20;1.00;;;;;;5084054;28;20202;-79
2022/03/01 10:02:42;;;;;;;8.07;5.90;;;12.20;1.00;;;;;;5081281;28;20455;-79
2022/03/01 10:05:11;;;;;;;7.53;5.90;;;12.20;1.00;;;;;;5080738;28;20570;-78
2022/03/01 10:07:43;;;;;;;8.60;4.87;;;12.20;1.00;;;;;;5081385;28;20452;-79
2022/03/01 10:10:16;;;;;;;8.93;6.70;;;12.00;1.00;;;;;;5082108;28;20510;-78
2022/03/01 10:12:54;;;;;;;7.90;5.60;;;11.90;1.00;;;;;;5079222;28;20439;-78
2022/03/01 10:15:28;;;;;;;6.83;4.43;;;11.80;1.00;;;;;;5077657;28;20521;-79
2022/03/01 10:17:59;;;;;;;7.67;5.37;;;12.00;1.00;;;;;;5083496;28;20467;-78
2022/03/01 10:20:28;;;;;;;5.57;4.90;;;11.90;1.00;;;;;;5079718;28;20475;-79
2022/03/01 10:22:58;;;;;;;8.63;5.27;;;12.00;1.00;;;;;;5088224;28;20574;-79
2022/03/01 10:25:27;;;;;;;7.37;5.00;;;12.30;1.00;;;;;;5079499;28;20484;-79
2022/03/01 10:27:56;;;;;;;5.77;4.13;;;12.30;1.00;;;;;;5078424;28;20467;-79
2022/03/01 10:30:27;;;;;;;7.00;4.40;;;12.20;1.00;;;;;;5076888;28;20457;-79
2022/03/01 10:33:07;;;;;;;7.87;4.73;;;12.30;1.00;;;;;;5079361;28;21033;-78
2022/03/01 10:35:36;;;;;;;5.37;4.30;;;12.30;1.00;;;;;;5076721;28;20836;-80
2022/03/01 10:38:06;;;;;;;8.03;4.80;;;12.50;1.00;;;;;;5077304;28;20482;-78
2022/03/01 10:40:35;;;;;;;6.70;4.60;;;12.70;1.00;;;;;;5080185;28;20456;-77
2022/03/01 10:43:07;;;;;;;8.33;4.70;;;12.90;1.00;;;;;;5076982;28;20459;-79
2022/03/01 10:45:38;;;;;;;5.90;4.10;;;13.10;1.00;;;;;;5067697;28;20593;-80
2022/03/01 10:48:09;;;;;;;6.30;4.85;;;13.30;1.00;;;;;;5078531;28;20433;-78
2022/03/01 10:50:39;;;;;;;6.50;4.90;;;13.40;1.00;;;;;;5074263;28;20450;-79
2022/03/01 10:53:08;;;;;;;7.07;5.20;;;13.70;1.00;;;;;;5071635;28;20444;-79
2022/03/01 10:55:41;;;;;;;6.83;5.03;;;13.90;1.00;;;;;;5072814;28;20488;-80
2022/03/01 10:58:12;;;;;;;6.07;4.93;;;13.90;1.00;;;;;;5077295;28;20601;-81
2022/03/01 11:00:41;;;;;;;7.78;5.70;;;14.20;1.00;;;;;;5076405;28;20467;-78
2022/03/01 11:03:11;;;;;;;6.17;4.90;;;14.90;1.00;;;;;;5076496;28;20318;-78
2022/03/01 11:05:40;;;;;;;6.47;4.27;;;15.20;1.00;;;;;;5074814;28;20461;-79
2022/03/01 11:08:33;;;;;;;5.25;4.50;;;15.50;1.00;;;;;;5078199;28;20448;-81
2022/03/01 11:11:03;;;;;;;6.20;4.90;;;16.30;3.70;;;;;;5076972;28;20215;-80
2022/03/01 11:13:35;;;;;;;6.40;4.90;;;16.20;3.60;;;;;;5072738;28;20855;-79
2022/03/01 11:16:46;;;;;;;5.73;4.23;;;16.20;2.70;;;;;;5079848;28;20478;-80
2022/03/01 11:19:40;;;;;;;5.60;5.10;;;16.00;1.00;;;;;;5068345;28;20472;-80
2022/03/01 11:22:19;;;;;;;5.13;4.63;;;16.40;2.00;;;;;;5071945;28;20276;-80
2022/03/01 11:24:48;;;;;;;5.43;4.90;;;15.80;1.00;;;;;;5077707;28;20548;-79
2022/03/01 11:27:21;;;;;;;4.70;3.87;;;15.70;1.00;;;;;;5078023;28;20465;-81
2022/03/01 11:29:50;;;;;;;5.60;4.65;;;15.80;1.00;;;;;;5082792;28;20540;-83
2022/03/01 11:32:22;;;;;;;6.97;4.30;;;16.40;2.60;;;;;;5084185;28;20196;-78
2022/03/01 11:35:02;;;;;;;5.87;5.20;;;16.60;3.50;;;;;;5080286;28;20472;-79
2022/03/01 11:37:30;;;;;;;7.20;5.40;;;16.50;1.70;;;;;;5076622;28;20560;-80
2022/03/01 11:40:02;;;;;;;7.83;4.90;;;16.10;1.00;;;;;;5089390;28;20532;-83
2022/03/01 11:42:33;;;;;;;5.10;4.20;;;15.80;6.90;;;;;;5087213;28;20445;-80
2022/03/01 11:45:10;;;;;;;4.50;4.10;;;15.50;1.00;;;;;;5091206;28;20457;-79
2022/03/01 11:47:39;;;;;;;7.50;5.67;;;15.20;1.00;;;;;;5088138;28;20433;-83
2022/03/01 11:50:24;;;;;;;6.10;5.27;;;14.80;1.00;;;;;;5081546;28;20510;-80
2022/03/01 11:53:02;;;;;;;5.90;4.43;;;14.50;1.00;;;;;;5085359;28;21016;-80
2022/03/01 11:55:37;;;;;;;5.40;4.33;;;14.50;1.00;;;;;;5087355;28;20476;-81
2022/03/01 11:58:05;;;;;;;7.68;5.43;;;14.50;1.00;;;;;;5081805;28;20535;-81
2022/03/01 12:00:36;;;;;;;6.63;5.00;;;14.40;1.00;;;;;;5092664;28;20197;-79
2022/03/01 12:03:04;;;;;;;4.57;4.07;;;14.40;1.00;;;;;;5093930;28;20447;-82
2022/03/01 12:05:39;;;;;;;6.47;4.00;;;14.30;1.00;;;;;;5093755;28;20487;-80
2022/03/01 12:08:12;;;;;;;7.87;5.43;;;14.30;1.00;;;;;;5092632;28;20470;-81
2022/03/01 12:10:54;;;;;;;5.00;4.20;;;14.40;1.00;;;;;;5086679;28;20809;-81
2022/03/01 12:13:34;;;;;;;5.80;4.33;;;14.20;1.00;;;;;;5084373;28;20530;-82
2022/03/01 12:16:04;;;;;;;5.17;3.50;;;14.00;1.00;;;;;;5087312;28;20474;-80
2022/03/01 12:18:35;;;;;;;7.50;5.10;;;13.90;1.00;;;;;;5081423;28;20572;-78
2022/03/01 12:21:08;;;;;;;7.43;4.63;;;14.10;1.00;;;;;;5091984;28;20485;-80
2022/03/01 12:23:40;;;;;;;6.00;4.10;;;14.20;1.00;;;;;;5083594;28;20484;-79
2022/03/01 12:26:11;;;;;;;4.83;4.20;;;14.00;1.00;;;;;;5089328;28;20533;-79
2022/03/01 12:28:40;;;;;;;6.07;3.90;;;13.90;1.00;;;;;;5090387;28;20457;-80
2022/03/01 12:31:10;;;;;;;5.47;4.20;;;13.90;1.00;;;;;;5089461;28;20450;-80
2022/03/01 12:33:48;;;;;;;4.43;3.20;;;14.10;1.00;;;;;;5084611;28;20548;-82
2022/03/01 12:36:26;;;;;;;4.20;3.33;;;14.20;1.00;;;;;;5084804;28;20909;-81
2022/03/01 12:38:55;;;;;;;3.73;3.30;;;14.40;1.00;;;;;;5088274;28;20473;-80
2022/03/01 12:41:24;;;;;;;9.90;3.93;;;14.50;1.00;;;;;;5090674;28;20531;-79
2022/03/01 12:43:54;;;;;;;5.10;3.43;;;14.30;1.00;;;;;;5090912;28;20458;-80
2022/03/01 12:46:23;;;;;;;3.67;3.30;;;14.40;1.00;;;;;;5091690;28;20944;-79
2022/03/01 12:48:52;;;;;;;6.43;4.20;;;14.70;1.00;;;;;;5083805;28;20541;-81
2022/03/01 12:51:21;;;;;;;3.90;3.23;;;14.30;1.00;;;;;;5087000;28;20669;-80
2022/03/01 12:53:55;;;;;;;3.43;3.13;;;14.30;1.00;;;;;;5081905;28;20448;-79
2022/03/01 12:56:26;;;;;;;5.47;3.87;;;14.30;1.00;;;;;;5091644;28;21345;-81
2022/03/01 12:59:06;;;;;;;3.50;3.20;;;14.30;1.00;;;;;;5087046;28;20465;-80
2022/03/01 13:01:35;;;;;;;6.87;4.10;;;14.40;1.00;;;;;;5085878;28;20456;-79
2022/03/01 13:04:06;;;;;;;5.90;3.77;;;14.30;1.00;;;;;;5088225;28;20469;-79
2022/03/01 13:06:36;;;;;;;3.97;3.57;;;14.40;1.00;;;;;;5082938;28;23199;-78
2022/03/01 13:09:06;;;;;;;5.87;3.40;;;14.50;1.00;;;;;;5083041;28;20491;-80
2022/03/01 13:11:36;;;;;;;4.13;3.73;;;14.40;1.00;;;;;;5088421;28;20514;-81
2022/03/01 13:14:06;;;;;;;4.20;3.03;;;14.30;1.00;;;;;;5085419;28;20457;-80
2022/03/01 13:16:36;;;;;;;7.77;4.07;;;14.30;1.00;;;;;;5086815;28;20485;-80